sensor_id;sensor_type;location;lat;lon;timestamp;pressure;altitude;pressure_sealevel;temperature;humidity
54856;BME280;40748;53.168;5.800;2022-08-21T00:00:48;101634.5;;;17.93;59.22
54856;BME280;40748;53.168;5.800;2022-08-21T00:03:18;101630.87000000001;;;17.92;59.44
54856;BME280;40748;53.168;5.800;2022-08-21T00:05:49;101628.11;;;17.90;59.33
54856;BME280;40748;53.168;5.800;2022-08-21T00:08:19;101627.42;;;17.89;59.08
54856;BME280;40748;53.168;5.800;2022-08-21T00:10:48;101621.3;;;17.87;59.49
54856;BME280;40748;53.168;5.800;2022-08-21T00:15:49;101619.25;;;17.82;59.53
54856;BME280;40748;53.168;5.800;2022-08-21T00:18:18;101619.97;;;17.80;59.80
54856;BME280;40748;53.168;5.800;2022-08-21T00:20:48;101618.95;;;17.79;59.96
54856;BME280;40748;53.168;5.800;2022-08-21T00:23:18;101614.97;;;17.75;60.06
54856;BME280;40748;53.168;5.800;2022-08-21T00:25:48;101611.94;;;17.70;59.89
54856;BME280;40748;53.168;5.800;2022-08-21T00:28:18;101611.94;;;17.66;59.89
54856;BME280;40748;53.168;5.800;2022-08-21T00:30:48;101610.44;;;17.61;60.03
54856;BME280;40748;53.168;5.800;2022-08-21T00:33:18;101611.7;;;17.57;60.16
54856;BME280;40748;53.168;5.800;2022-08-21T00:35:48;101610.74;;;17.51;60.32
54856;BME280;40748;53.168;5.800;2022-08-21T00:38:18;101610.74;;;17.47;60.09
54856;BME280;40748;53.168;5.800;2022-08-21T00:40:50;101605.52;;;17.42;60.42
54856;BME280;40748;53.168;5.800;2022-08-21T00:43:19;101605.52;;;17.38;60.42
54856;BME280;40748;53.168;5.800;2022-08-21T00:45:48;101602.99;;;17.33;60.44
54856;BME280;40748;53.168;5.800;2022-08-21T00:48:18;101608.25;;;17.29;60.35
54856;BME280;40748;53.168;5.800;2022-08-21T00:50:50;101606.70999999999;;;17.26;60.57
54856;BME280;40748;53.168;5.800;2022-08-21T00:53:18;101606.70999999999;;;17.23;60.56
54856;BME280;40748;53.168;5.800;2022-08-21T00:55:48;101610.92;;;17.18;60.78
54856;BME280;40748;53.168;5.800;2022-08-21T00:58:18;101608.59;;;17.15;60.66
54856;BME280;40748;53.168;5.800;2022-08-21T01:00:49;101603.12;;;17.12;60.97
54856;BME280;40748;53.168;5.800;2022-08-21T01:03:20;101602.07;;;17.08;61.05
54856;BME280;40748;53.168;5.800;2022-08-21T01:05:48;101598.11;;;17.04;61.21
54856;BME280;40748;53.168;5.800;2022-08-21T01:08:19;101597.89;;;17.00;61.00
54856;BME280;40748;53.168;5.800;2022-08-21T01:10:48;101595.5;;;16.97;61.17
54856;BME280;40748;53.168;5.800;2022-08-21T01:13:18;101597.72;;;16.94;61.38
54856;BME280;40748;53.168;5.800;2022-08-21T01:15:48;101597.49;;;16.90;61.35
54856;BME280;40748;53.168;5.800;2022-08-21T01:18:19;101596.61;;;16.88;61.35
54856;BME280;40748;53.168;5.800;2022-08-21T01:20:58;101599.7;;;16.87;61.58
54856;BME280;40748;53.168;5.800;2022-08-21T01:23:18;101597.14;;;16.85;61.79
54856;BME280;40748;53.168;5.800;2022-08-21T01:25:48;101598.29999999999;;;16.83;61.73
54856;BME280;40748;53.168;5.800;2022-08-21T01:28:18;101598.29999999999;;;16.81;61.73
54856;BME280;40748;53.168;5.800;2022-08-21T01:35:48;101596.98;;;16.79;62.83
54856;BME280;40748;53.168;5.800;2022-08-21T01:38:18;101591.72;;;16.78;62.80
54856;BME280;40748;53.168;5.800;2022-08-21T01:45:48;101593.07;;;16.77;63.39
54856;BME280;40748;53.168;5.800;2022-08-21T01:50:48;101594.11;;;16.76;63.83
54856;BME280;40748;53.168;5.800;2022-08-21T01:55:48;101585.74;;;16.75;64.12
54856;BME280;40748;53.168;5.800;2022-08-21T02:00:48;101577.73999999999;;;16.73;64.10
54856;BME280;40748;53.168;5.800;2022-08-21T02:03:18;101577.73999999999;;;16.74;64.67
54856;BME280;40748;53.168;5.800;2022-08-21T02:05:48;101576.11;;;16.72;64.63
54856;BME280;40748;53.168;5.800;2022-08-21T02:13:19;101567.31999999999;;;16.71;64.44
54856;BME280;40748;53.168;5.800;2022-08-21T02:15:49;101567.31999999999;;;16.70;64.44
54856;BME280;40748;53.168;5.800;2022-08-21T02:18:18;101568.16;;;16.68;63.99
54856;BME280;40748;53.168;5.800;2022-08-21T02:25:48;101559.07999999999;;;16.66;64.53
54856;BME280;40748;53.168;5.800;2022-08-21T02:28:18;101559.07999999999;;;16.65;64.53
54856;BME280;40748;53.168;5.800;2022-08-21T02:33:18;101551.42;;;16.66;65.06
54856;BME280;40748;53.168;5.800;2022-08-21T02:35:49;101551.42;;;16.64;64.90
54856;BME280;40748;53.168;5.800;2022-08-21T02:40:50;101544.53;;;16.65;65.04
54856;BME280;40748;53.168;5.800;2022-08-21T02:43:19;101545.4;;;16.64;65.19
54856;BME280;40748;53.168;5.800;2022-08-21T02:45:49;101547.22;;;16.63;65.27
54856;BME280;40748;53.168;5.800;2022-08-21T02:48:19;101543.34;;;16.61;64.99
54856;BME280;40748;53.168;5.800;2022-08-21T02:50:52;101538.36;;;16.62;65.72
54856;BME280;40748;53.168;5.800;2022-08-21T02:55:49;101530.33;;;16.60;65.88
54856;BME280;40748;53.168;5.800;2022-08-21T03:08:19;101520.39;;;16.59;66.37
54856;BME280;40748;53.168;5.800;2022-08-21T03:10:49;101514.95;;;16.61;66.77
54856;BME280;40748;53.168;5.800;2022-08-21T03:13:19;101514.95;;;16.62;66.96
54856;BME280;40748;53.168;5.800;2022-08-21T03:15:48;101516.47;;;16.61;67.01
54856;BME280;40748;53.168;5.800;2022-08-21T03:20:49;101515.99;;;16.60;66.94
54856;BME280;40748;53.168;5.800;2022-08-21T03:25:48;101515.16;;;16.58;66.72
54856;BME280;40748;53.168;5.800;2022-08-21T03:33:19;101503.3;;;16.59;67.36
54856;BME280;40748;53.168;5.800;2022-08-21T03:35:51;101503.3;;;16.58;67.36
54856;BME280;40748;53.168;5.800;2022-08-21T03:40:48;101500.42;;;16.57;67.74
54856;BME280;40748;53.168;5.800;2022-08-21T03:43:18;101500.42;;;16.56;67.74
54856;BME280;40748;53.168;5.800;2022-08-21T03:48:18;101498.15;;;16.57;67.43
54856;BME280;40748;53.168;5.800;2022-08-21T03:53:18;101492.04999999999;;;16.56;67.74
54856;BME280;40748;53.168;5.800;2022-08-21T03:55:49;101493.51000000001;;;16.53;67.96
54856;BME280;40748;53.168;5.800;2022-08-21T03:58:19;101493.06;;;16.52;67.82
54856;BME280;40748;53.168;5.800;2022-08-21T04:05:48;101494.48;;;16.50;67.82
54856;BME280;40748;53.168;5.800;2022-08-21T04:08:19;101498.42;;;16.52;67.38
54856;BME280;40748;53.168;5.800;2022-08-21T04:10:50;101500.2;;;16.53;67.87
54856;BME280;40748;53.168;5.800;2022-08-21T04:18:18;101499.3;;;16.54;68.22
54856;BME280;40748;53.168;5.800;2022-08-21T04:20:49;101496.73;;;16.53;68.43
54856;BME280;40748;53.168;5.800;2022-08-21T04:23:19;101493.39;;;16.52;68.29
54856;BME280;40748;53.168;5.800;2022-08-21T04:25:49;101488.98000000001;;;16.50;68.54
54856;BME280;40748;53.168;5.800;2022-08-21T04:28:18;101486.81;;;16.51;68.17
54856;BME280;40748;53.168;5.800;2022-08-21T04:30:48;101485.46;;;16.53;68.39
54856;BME280;40748;53.168;5.800;2022-08-21T04:33:19;101488.65;;;16.55;68.89
54856;BME280;40748;53.168;5.800;2022-08-21T04:38:19;101487.22;;;16.56;68.92
54856;BME280;40748;53.168;5.800;2022-08-21T04:40:49;101494.84;;;16.58;69.42
54856;BME280;40748;53.168;5.800;2022-08-21T04:43:19;101493.76999999999;;;16.61;69.39
54856;BME280;40748;53.168;5.800;2022-08-21T04:48:19;101496.5;;;16.62;69.03
54856;BME280;40748;53.168;5.800;2022-08-21T04:50:49;101491.42;;;16.63;69.46
54856;BME280;40748;53.168;5.800;2022-08-21T04:53:20;101491.42;;;16.64;69.46
54856;BME280;40748;53.168;5.800;2022-08-21T04:58:19;101497.5;;;16.65;69.35
54856;BME280;40748;53.168;5.800;2022-08-21T05:03:18;101497.34999999999;;;16.66;69.44
54856;BME280;40748;53.168;5.800;2022-08-21T05:05:48;101497.56;;;16.68;69.53
54856;BME280;40748;53.168;5.800;2022-08-21T05:08:19;101500.92;;;16.70;69.01
54856;BME280;40748;53.168;5.800;2022-08-21T05:10:49;101498.24;;;16.75;69.49
54856;BME280;40748;53.168;5.800;2022-08-21T05:13:18;101500.73;;;16.79;69.32
54856;BME280;40748;53.168;5.800;2022-08-21T05:15:48;101501.56;;;16.77;69.09
54856;BME280;40748;53.168;5.800;2022-08-21T05:18:18;101505.3;;;16.81;68.87
54856;BME280;40748;53.168;5.800;2022-08-21T05:20:48;101508.7;;;16.87;69.36
54856;BME280;40748;53.168;5.800;2022-08-21T05:23:19;101514.09;;;16.88;69.33
54856;BME280;40748;53.168;5.800;2022-08-21T05:25:48;101515.97;;;16.90;69.59
54856;BME280;40748;53.168;5.800;2022-08-21T05:28:18;101515.64;;;16.96;69.21
54856;BME280;40748;53.168;5.800;2022-08-21T05:30:48;101515.39;;;17.00;69.38
54856;BME280;40748;53.168;5.800;2022-08-21T05:33:18;101515.32999999999;;;17.03;69.72
54856;BME280;40748;53.168;5.800;2022-08-21T05:35:49;101515.83;;;17.02;69.92
54856;BME280;40748;53.168;5.800;2022-08-21T05:38:18;101520.0;;;17.07;69.62
54856;BME280;40748;53.168;5.800;2022-08-21T05:40:48;101522.11;;;17.14;70.05
54856;BME280;40748;53.168;5.800;2022-08-21T05:43:18;101525.19;;;17.21;69.93
54856;BME280;40748;53.168;5.800;2022-08-21T05:45:48;101522.15;;;17.24;70.09
54856;BME280;40748;53.168;5.800;2022-08-21T05:48:19;101521.42;;;17.30;69.87
54856;BME280;40748;53.168;5.800;2022-08-21T05:50:49;101526.75;;;17.37;70.20
54856;BME280;40748;53.168;5.800;2022-08-21T05:53:19;101525.75;;;17.46;70.18
54856;BME280;40748;53.168;5.800;2022-08-21T05:55:49;101529.92;;;17.51;70.07
54856;BME280;40748;53.168;5.800;2022-08-21T05:58:19;101530.73000000001;;;17.58;69.66
54856;BME280;40748;53.168;5.800;2022-08-21T06:00:49;101528.78;;;17.68;69.89
54856;BME280;40748;53.168;5.800;2022-08-21T06:03:19;101522.18000000001;;;17.80;69.87
54856;BME280;40748;53.168;5.800;2022-08-21T06:05:48;101525.28;;;17.89;70.06
54856;BME280;40748;53.168;5.800;2022-08-21T06:08:19;101524.11;;;18.02;70.10
54856;BME280;40748;53.168;5.800;2022-08-21T06:10:49;101523.95;;;18.14;70.31
54856;BME280;40748;53.168;5.800;2022-08-21T06:13:19;101523.95;;;18.21;70.39
54856;BME280;40748;53.168;5.800;2022-08-21T06:15:49;101520.5;;;18.28;70.91
54856;BME280;40748;53.168;5.800;2022-08-21T06:18:18;101516.66;;;18.38;70.90
54856;BME280;40748;53.168;5.800;2022-08-21T06:20:48;101521.56;;;18.51;71.88
54856;BME280;40748;53.168;5.800;2022-08-21T06:23:18;101526.15;;;18.60;72.32
54856;BME280;40748;53.168;5.800;2022-08-21T06:25:48;101526.15;;;18.69;72.32
54856;BME280;40748;53.168;5.800;2022-08-21T06:28:18;101520.75;;;18.79;71.08
54856;BME280;40748;53.168;5.800;2022-08-21T06:30:48;101524.92;;;18.89;71.86
54856;BME280;40748;53.168;5.800;2022-08-21T06:33:19;101519.87000000001;;;18.99;70.94
54856;BME280;40748;53.168;5.800;2022-08-21T06:35:48;101526.14;;;19.05;72.46
54856;BME280;40748;53.168;5.800;2022-08-21T06:38:19;101524.65;;;19.19;72.08
54856;BME280;40748;53.168;5.800;2022-08-21T06:40:48;101524.65;;;19.35;72.08
54856;BME280;40748;53.168;5.800;2022-08-21T06:43:18;101521.37;;;19.42;71.44
54856;BME280;40748;53.168;5.800;2022-08-21T06:45:48;101520.75;;;19.54;72.48
54856;BME280;40748;53.168;5.800;2022-08-21T06:48:18;101519.53;;;19.72;72.25
54856;BME280;40748;53.168;5.800;2022-08-21T06:50:48;101519.22;;;19.88;71.38
54856;BME280;40748;53.168;5.800;2022-08-21T06:53:19;101525.69;;;20.03;71.27
54856;BME280;40748;53.168;5.800;2022-08-21T06:55:48;101525.9;;;20.45;72.62
54856;BME280;40748;53.168;5.800;2022-08-21T06:58:18;101524.69;;;21.10;72.98
54856;BME280;40748;53.168;5.800;2022-08-21T07:00:49;101529.16;;;21.81;73.18
54856;BME280;40748;53.168;5.800;2022-08-21T07:03:19;101528.63;;;22.56;72.33
54856;BME280;40748;53.168;5.800;2022-08-21T07:05:49;101529.42;;;23.17;72.46
54856;BME280;40748;53.168;5.800;2022-08-21T07:08:19;101533.08;;;23.89;72.06
54856;BME280;40748;53.168;5.800;2022-08-21T07:10:48;101527.25;;;24.55;72.05
54856;BME280;40748;53.168;5.800;2022-08-21T07:13:18;101529.26999999999;;;25.15;70.08
54856;BME280;40748;53.168;5.800;2022-08-21T07:15:49;101524.78;;;25.79;69.11
54856;BME280;40748;53.168;5.800;2022-08-21T07:18:19;101531.44;;;26.30;66.85
54856;BME280;40748;53.168;5.800;2022-08-21T07:20:48;101531.44;;;26.51;65.31
54856;BME280;40748;53.168;5.800;2022-08-21T07:23:20;101530.58;;;26.13;63.53
54856;BME280;40748;53.168;5.800;2022-08-21T07:25:48;101528.88;;;25.95;59.73
54856;BME280;40748;53.168;5.800;2022-08-21T07:28:18;101531.28;;;25.77;60.60
54856;BME280;40748;53.168;5.800;2022-08-21T07:30:50;101530.28;;;25.86;60.46
54856;BME280;40748;53.168;5.800;2022-08-21T07:33:18;101535.35;;;26.26;62.05
54856;BME280;40748;53.168;5.800;2022-08-21T07:35:48;101536.47;;;26.71;61.51
54856;BME280;40748;53.168;5.800;2022-08-21T07:38:18;101535.11;;;27.41;61.24
54856;BME280;40748;53.168;5.800;2022-08-21T07:40:49;101533.73;;;28.02;61.24
54856;BME280;40748;53.168;5.800;2022-08-21T07:43:19;101533.90000000001;;;28.60;58.97
54856;BME280;40748;53.168;5.800;2022-08-21T07:45:48;101532.22;;;29.07;58.84
54856;BME280;40748;53.168;5.800;2022-08-21T07:48:18;101529.61;;;29.45;56.04
54856;BME280;40748;53.168;5.800;2022-08-21T07:50:49;101529.08;;;29.77;56.08
54856;BME280;40748;53.168;5.800;2022-08-21T07:53:18;101532.84;;;29.90;53.36
54856;BME280;40748;53.168;5.800;2022-08-21T07:55:48;101536.15999999999;;;29.93;52.72
54856;BME280;40748;53.168;5.800;2022-08-21T07:58:18;101531.39;;;29.92;51.53
54856;BME280;40748;53.168;5.800;2022-08-21T08:00:48;101531.74;;;29.68;49.97
54856;BME280;40748;53.168;5.800;2022-08-21T08:03:18;101531.74;;;29.56;49.97
54856;BME280;40748;53.168;5.800;2022-08-21T08:05:49;101523.67;;;29.83;50.49
54856;BME280;40748;53.168;5.800;2022-08-21T08:08:19;101527.53;;;30.13;50.21
54856;BME280;40748;53.168;5.800;2022-08-21T08:10:49;101527.67;;;30.62;50.59
54856;BME280;40748;53.168;5.800;2022-08-21T08:13:18;101530.90999999999;;;30.95;51.14
54856;BME280;40748;53.168;5.800;2022-08-21T08:15:49;101536.94;;;31.15;47.29
54856;BME280;40748;53.168;5.800;2022-08-21T08:18:19;101536.94;;;31.59;47.29
54856;BME280;40748;53.168;5.800;2022-08-21T08:20:48;101532.92;;;31.85;47.08
54856;BME280;40748;53.168;5.800;2022-08-21T08:23:18;101533.28;;;32.23;46.79
54856;BME280;40748;53.168;5.800;2022-08-21T08:25:48;101527.61;;;32.25;47.02
54856;BME280;40748;53.168;5.800;2022-08-21T08:28:18;101524.19;;;32.24;44.30
54856;BME280;40748;53.168;5.800;2022-08-21T08:30:49;101524.19;;;32.26;44.45
54856;BME280;40748;53.168;5.800;2022-08-21T08:33:19;101520.04;;;32.37;45.05
54856;BME280;40748;53.168;5.800;2022-08-21T08:35:49;101518.67;;;32.60;44.58
54856;BME280;40748;53.168;5.800;2022-08-21T08:38:19;101518.98;;;32.79;44.19
54856;BME280;40748;53.168;5.800;2022-08-21T08:40:50;101521.33;;;33.08;44.77
54856;BME280;40748;53.168;5.800;2022-08-21T08:43:19;101519.64;;;33.52;44.68
54856;BME280;40748;53.168;5.800;2022-08-21T08:45:50;101518.55;;;33.84;44.88
54856;BME280;40748;53.168;5.800;2022-08-21T08:48:24;101523.71;;;34.39;42.91
54856;BME280;40748;53.168;5.800;2022-08-21T08:50:49;101526.47;;;34.56;43.82
54856;BME280;40748;53.168;5.800;2022-08-21T08:53:19;101523.41;;;34.94;40.74
54856;BME280;40748;53.168;5.800;2022-08-21T08:55:49;101523.41;;;34.72;41.44
54856;BME280;40748;53.168;5.800;2022-08-21T08:58:20;101519.2;;;34.45;40.20
54856;BME280;40748;53.168;5.800;2022-08-21T09:00:49;101515.54;;;34.53;41.19
54856;BME280;40748;53.168;5.800;2022-08-21T09:03:19;101518.76;;;34.55;40.49
54856;BME280;40748;53.168;5.800;2022-08-21T09:05:50;101518.76;;;34.67;39.72
54856;BME280;40748;53.168;5.800;2022-08-21T09:08:23;101527.82999999999;;;34.33;37.26
54856;BME280;40748;53.168;5.800;2022-08-21T09:10:52;101526.09;;;34.11;38.86
54856;BME280;40748;53.168;5.800;2022-08-21T09:15:51;101527.47;;;34.46;39.90
54856;BME280;40748;53.168;5.800;2022-08-21T09:18:25;101524.45;;;34.92;40.58
54856;BME280;40748;53.168;5.800;2022-08-21T09:20:53;101524.45;;;35.39;40.62
54856;BME280;40748;53.168;5.800;2022-08-21T09:23:22;101521.8;;;35.71;40.85
54856;BME280;40748;53.168;5.800;2022-08-21T09:25:51;101522.55;;;35.91;39.76
54856;BME280;40748;53.168;5.800;2022-08-21T09:28:19;101525.92;;;35.81;39.34
54856;BME280;40748;53.168;5.800;2022-08-21T09:30:49;101526.56;;;35.51;38.69
54856;BME280;40748;53.168;5.800;2022-08-21T09:33:19;101521.03;;;34.89;38.23
54856;BME280;40748;53.168;5.800;2022-08-21T09:35:50;101528.66;;;34.18;37.51
54856;BME280;40748;53.168;5.800;2022-08-21T09:38:24;101528.66;;;34.54;37.51
54856;BME280;40748;53.168;5.800;2022-08-21T09:40:54;101533.83;;;34.87;39.07
54856;BME280;40748;53.168;5.800;2022-08-21T09:43:20;101532.14;;;34.96;37.26
54856;BME280;40748;53.168;5.800;2022-08-21T09:45:49;101538.75;;;34.46;37.10
54856;BME280;40748;53.168;5.800;2022-08-21T09:48:20;101532.61;;;33.86;36.81
54856;BME280;40748;53.168;5.800;2022-08-21T09:50:49;101532.61;;;33.57;36.81
54856;BME280;40748;53.168;5.800;2022-08-21T09:53:20;101535.20999999999;;;33.70;37.84
54856;BME280;40748;53.168;5.800;2022-08-21T09:55:51;101537.51999999999;;;34.13;35.45
54856;BME280;40748;53.168;5.800;2022-08-21T09:58:19;101530.61;;;34.69;37.84
54856;BME280;40748;53.168;5.800;2022-08-21T10:00:56;101527.70000000001;;;35.33;38.19
54856;BME280;40748;53.168;5.800;2022-08-21T10:03:20;101527.39;;;35.69;38.23
54856;BME280;40748;53.168;5.800;2022-08-21T10:05:51;101533.92;;;36.03;35.57
54856;BME280;40748;53.168;5.800;2022-08-21T10:08:19;101533.92;;;36.14;35.57
54856;BME280;40748;53.168;5.800;2022-08-21T10:10:50;101540.72;;;35.83;35.65
54856;BME280;40748;53.168;5.800;2022-08-21T10:13:20;101536.08;;;35.82;35.71
54856;BME280;40748;53.168;5.800;2022-08-21T10:15:50;101533.73;;;35.56;35.17
54856;BME280;40748;53.168;5.800;2022-08-21T10:18:21;101533.98;;;35.11;33.74
54856;BME280;40748;53.168;5.800;2022-08-21T10:20:50;101541.31;;;34.28;34.57
54856;BME280;40748;53.168;5.800;2022-08-21T10:23:25;101540.55;;;33.68;33.90
54856;BME280;40748;53.168;5.800;2022-08-21T10:25:49;101541.58;;;33.12;34.89
54856;BME280;40748;53.168;5.800;2022-08-21T10:28:20;101541.58;;;32.58;34.89
54856;BME280;40748;53.168;5.800;2022-08-21T10:30:50;101536.79;;;32.13;35.53
54856;BME280;40748;53.168;5.800;2022-08-21T10:33:22;101536.79;;;31.85;35.53
54856;BME280;40748;53.168;5.800;2022-08-21T10:35:51;101546.84;;;31.54;35.82
54856;BME280;40748;53.168;5.800;2022-08-21T10:38:27;101541.37;;;31.73;36.25
54856;BME280;40748;53.168;5.800;2022-08-21T10:40:50;101534.16;;;32.37;37.26
54856;BME280;40748;53.168;5.800;2022-08-21T10:43:21;101537.84000000001;;;33.03;37.68
54856;BME280;40748;53.168;5.800;2022-08-21T10:45:52;101541.56;;;33.84;37.85
54856;BME280;40748;53.168;5.800;2022-08-21T10:48:22;101539.56;;;34.75;38.19
54856;BME280;40748;53.168;5.800;2022-08-21T10:50:50;101538.48000000001;;;35.52;37.66
54856;BME280;40748;53.168;5.800;2022-08-21T10:53:22;101539.83;;;36.20;36.92
54856;BME280;40748;53.168;5.800;2022-08-21T10:55:51;101543.02;;;36.51;36.15
54856;BME280;40748;53.168;5.800;2022-08-21T10:58:21;101541.6;;;36.63;33.24
54856;BME280;40748;53.168;5.800;2022-08-21T11:00:49;101548.87999999999;;;36.83;35.02
54856;BME280;40748;53.168;5.800;2022-08-21T11:03:21;101548.33;;;37.10;34.67
54856;BME280;40748;53.168;5.800;2022-08-21T11:05:50;101545.12;;;37.50;34.45
54856;BME280;40748;53.168;5.800;2022-08-21T11:08:21;101543.94;;;38.07;33.27
54856;BME280;40748;53.168;5.800;2022-08-21T11:10:50;101544.73000000001;;;38.42;34.30
54856;BME280;40748;53.168;5.800;2022-08-21T11:13:19;101544.62;;;38.85;33.72
54856;BME280;40748;53.168;5.800;2022-08-21T11:15:51;101545.65;;;39.14;33.45
54856;BME280;40748;53.168;5.800;2022-08-21T11:18:21;101547.78;;;39.50;32.13
54856;BME280;40748;53.168;5.800;2022-08-21T11:20:50;101547.78;;;39.70;32.13
54856;BME280;40748;53.168;5.800;2022-08-21T11:23:24;101540.99;;;39.95;32.00
54856;BME280;40748;53.168;5.800;2022-08-21T11:25:50;101546.32;;;39.86;31.78
54856;BME280;40748;53.168;5.800;2022-08-21T11:28:20;101544.62;;;40.30;30.70
54856;BME280;40748;53.168;5.800;2022-08-21T11:30:51;101548.83;;;40.43;30.60
54856;BME280;40748;53.168;5.800;2022-08-21T11:33:23;101545.45000000001;;;40.76;29.49
54856;BME280;40748;53.168;5.800;2022-08-21T11:35:50;101543.34;;;40.77;28.68
54856;BME280;40748;53.168;5.800;2022-08-21T11:38:22;101543.34;;;40.75;28.68
54856;BME280;40748;53.168;5.800;2022-08-21T11:40:54;101534.42;;;40.41;27.80
54856;BME280;40748;53.168;5.800;2022-08-21T11:43:20;101538.33;;;39.87;27.52
54856;BME280;40748;53.168;5.800;2022-08-21T11:45:49;101538.33;;;39.46;27.52
54856;BME280;40748;53.168;5.800;2022-08-21T11:48:25;101542.94;;;39.51;27.60
54856;BME280;40748;53.168;5.800;2022-08-21T11:50:49;101542.83;;;39.52;28.09
54856;BME280;40748;53.168;5.800;2022-08-21T11:53:19;101541.67;;;39.46;27.48
54856;BME280;40748;53.168;5.800;2022-08-21T11:55:50;101548.58;;;39.66;27.80
54856;BME280;40748;53.168;5.800;2022-08-21T11:58:22;101546.15;;;39.56;27.81
54856;BME280;40748;53.168;5.800;2022-08-21T12:00:49;101548.20999999999;;;39.55;27.61
54856;BME280;40748;53.168;5.800;2022-08-21T12:03:22;101555.07;;;39.80;27.27
54856;BME280;40748;53.168;5.800;2022-08-21T12:05:52;101553.92;;;40.07;27.37
54856;BME280;40748;53.168;5.800;2022-08-21T12:08:26;101553.92;;;40.33;27.37
54856;BME280;40748;53.168;5.800;2022-08-21T12:10:58;101556.43;;;40.30;27.71
54856;BME280;40748;53.168;5.800;2022-08-21T12:13:22;101554.25;;;40.21;27.34
54856;BME280;40748;53.168;5.800;2022-08-21T12:15:49;101557.78;;;39.75;27.06
54856;BME280;40748;53.168;5.800;2022-08-21T12:18:22;101548.95;;;39.34;26.10
54856;BME280;40748;53.168;5.800;2022-08-21T12:20:58;101548.95;;;38.89;26.10
54856;BME280;40748;53.168;5.800;2022-08-21T12:23:24;101559.06999999999;;;38.64;26.36
54856;BME280;40748;53.168;5.800;2022-08-21T12:25:59;101557.89;;;38.22;26.54
54856;BME280;40748;53.168;5.800;2022-08-21T12:28:21;101556.82;;;37.94;26.08
54856;BME280;40748;53.168;5.800;2022-08-21T12:30:49;101550.0;;;38.08;26.54
54856;BME280;40748;53.168;5.800;2022-08-21T12:33:21;101555.51000000001;;;38.14;27.24
54856;BME280;40748;53.168;5.800;2022-08-21T12:35:49;101555.38;;;38.06;26.82
54856;BME280;40748;53.168;5.800;2022-08-21T12:38:20;101554.94;;;37.72;26.45
54856;BME280;40748;53.168;5.800;2022-08-21T12:40:50;101558.8;;;37.48;25.41
54856;BME280;40748;53.168;5.800;2022-08-21T12:43:20;101558.8;;;37.22;25.41
54856;BME280;40748;53.168;5.800;2022-08-21T12:45:49;101561.89;;;36.66;24.24
54856;BME280;40748;53.168;5.800;2022-08-21T12:48:20;101559.73;;;36.03;25.49
54856;BME280;40748;53.168;5.800;2022-08-21T12:50:49;101559.29;;;35.74;25.69
54856;BME280;40748;53.168;5.800;2022-08-21T12:53:22;101552.99;;;35.31;26.87
54856;BME280;40748;53.168;5.800;2022-08-21T12:55:49;101565.94;;;34.98;27.11
54856;BME280;40748;53.168;5.800;2022-08-21T12:58:19;101566.44;;;34.58;27.24
54856;BME280;40748;53.168;5.800;2022-08-21T13:00:49;101566.6;;;34.18;27.93
54856;BME280;40748;53.168;5.800;2022-08-21T13:03:19;101566.6;;;33.95;27.93
54856;BME280;40748;53.168;5.800;2022-08-21T13:05:49;101572.16;;;33.80;28.30
54856;BME280;40748;53.168;5.800;2022-08-21T13:08:19;101573.83;;;33.70;28.70
54856;BME280;40748;53.168;5.800;2022-08-21T13:10:49;101570.75;;;33.40;29.11
54856;BME280;40748;53.168;5.800;2022-08-21T13:13:20;101575.18;;;33.19;29.18
54856;BME280;40748;53.168;5.800;2022-08-21T13:15:49;101576.09;;;33.07;29.36
54856;BME280;40748;53.168;5.800;2022-08-21T13:18:19;101576.09;;;32.84;29.39
54856;BME280;40748;53.168;5.800;2022-08-21T13:20:49;101573.63;;;32.61;29.92
54856;BME280;40748;53.168;5.800;2022-08-21T13:23:20;101572.68000000001;;;32.53;30.15
54856;BME280;40748;53.168;5.800;2022-08-21T13:25:49;101570.43;;;32.33;30.55
54856;BME280;40748;53.168;5.800;2022-08-21T13:28:19;101585.02;;;32.08;30.66
54856;BME280;40748;53.168;5.800;2022-08-21T13:30:50;101572.86;;;31.76;30.59
54856;BME280;40748;53.168;5.800;2022-08-21T13:33:19;101572.86;;;31.59;30.59
54856;BME280;40748;53.168;5.800;2022-08-21T13:35:49;101572.97;;;31.31;31.08
54856;BME280;40748;53.168;5.800;2022-08-21T13:38:19;101573.97;;;31.21;31.38
54856;BME280;40748;53.168;5.800;2022-08-21T13:40:49;101574.49;;;31.14;31.63
54856;BME280;40748;53.168;5.800;2022-08-21T13:43:20;101568.47;;;31.07;31.97
54856;BME280;40748;53.168;5.800;2022-08-21T13:45:50;101574.93;;;30.69;32.36
54856;BME280;40748;53.168;5.800;2022-08-21T13:48:19;101573.75;;;30.47;32.02
54856;BME280;40748;53.168;5.800;2022-08-21T13:50:49;101573.75;;;30.30;32.02
54856;BME280;40748;53.168;5.800;2022-08-21T13:53:20;101577.18;;;30.22;32.27
54856;BME280;40748;53.168;5.800;2022-08-21T13:55:49;101575.84000000001;;;30.16;32.61
54856;BME280;40748;53.168;5.800;2022-08-21T13:58:26;101574.53;;;29.87;33.06
54856;BME280;40748;53.168;5.800;2022-08-21T14:00:49;101569.53;;;29.71;33.16
54856;BME280;40748;53.168;5.800;2022-08-21T14:03:23;101570.48999999999;;;29.73;33.28
54856;BME280;40748;53.168;5.800;2022-08-21T14:05:49;101571.08;;;29.45;33.38
54856;BME280;40748;53.168;5.800;2022-08-21T14:08:21;101569.7;;;29.40;33.69
54856;BME280;40748;53.168;5.800;2022-08-21T14:13:24;101572.19;;;29.35;33.75
54856;BME280;40748;53.168;5.800;2022-08-21T14:15:54;101569.5;;;29.05;33.67
54856;BME280;40748;53.168;5.800;2022-08-21T14:18:19;101573.87999999999;;;29.01;34.30
54856;BME280;40748;53.168;5.800;2022-08-21T14:20:49;101573.46;;;28.80;34.31
54856;BME280;40748;53.168;5.800;2022-08-21T14:25:49;101580.52;;;28.71;34.58